Latest Weather Observations for Banana Bank

IDQ60901

Issued at 12:31 am EST Wednesday 1 March 2017 (issued every 10 minutes, with the page automatically refreshed every 10 minutes)

About weather observations | Map of Brisbane area stations | Latest observations for Brisbane area | Other Formats
Station Details ID: 040925 Name: BANANA BANK NORTH BEACON Lat: -27.53 Lon: 153.33 Height: 7.0 m
Data from the previous 72 hours. | See also: Recent months for locations in Queensland
Date/Time
EST
Temp
°C
App
Temp
°C
Dew
Point
°C
Rel
Hum
%
Delta-T
°C
Wind Press
QNH
hPa
Press
MSL
hPa
Rain since
9am
mm
Dir  Spd
km/h
Gust
km/h
Spd
kts
Gust
kts
01/12:00am - - - - - SSE 17 20 9 11 - - -
 
Date/Time
EST
Temp
°C
App
Temp
°C
Dew
Point
°C
Rel
Hum
%
Delta-T
°C
Wind Press
QNH
hPa
Press
MSL
hPa
Rain since
9am
mm
Dir  Spd
km/h
Gust
km/h
Spd
kts
Gust
kts
28/11:30pm - - - - - S 17 19 9 10 - - -
28/11:00pm - - - - - S 15 19 8 10 - - -
28/10:30pm - - - - - S 15 17 8 9 - - -
28/10:00pm - - - - - S 17 20 9 11 - - -
28/09:30pm - - - - - S 22 26 12 14 - - -
28/09:00pm - - - - - S 20 26 11 14 - - -
28/08:30pm - - - - - SSE 19 24 10 13 - - -
28/08:00pm - - - - - SSE 20 24 11 13 - - -
28/07:30pm - - - - - SE 19 20 10 11 - - -
28/07:00pm - - - - - SE 22 24 12 13 - - -
28/06:30pm - - - - - SE 24 30 13 16 - - -
28/06:00pm - - - - - SE 28 32 15 17 - - -
28/05:30pm - - - - - SSE 28 32 15 17 - - -
28/05:00pm - - - - - SE 28 32 15 17 - - -
28/04:30pm - - - - - SE 26 32 14 17 - - -
28/04:00pm - - - - - SE 30 37 16 20 - - -
28/03:30pm - - - - - SE 30 37 16 20 - - -
28/03:00pm - - - - - SE 30 35 16 19 - - -
28/02:30pm - - - - - SE 22 28 12 15 - - -
28/02:00pm - - - - - SE 24 28 13 15 - - -
28/01:30pm - - - - - SE 28 33 15 18 - - -
28/01:00pm - - - - - SSE 24 28 13 15 - - -
28/12:30pm - - - - - SE 26 28 14 15 - - -
28/12:00pm - - - - - SE 24 28 13 15 - - -
28/11:30am - - - - - SSE 22 24 12 13 - - -
28/11:00am - - - - - SSE 20 24 11 13 - - -
28/10:30am - - - - - S 20 24 11 13 - - -
28/10:00am - - - - - S 20 24 11 13 - - -
28/09:30am - - - - - S 19 24 10 13 - - -
28/08:30am - - - - - SSW 19 26 10 14 - - -
28/08:00am - - - - - SSW 20 26 11 14 - - -
28/07:30am - - - - - SW 17 20 9 11 - - -
28/07:00am - - - - - SSW 19 22 10 12 - - -
28/06:30am - - - - - SSW 19 22 10 12 - - -
28/06:00am - - - - - SSW 17 20 9 11 - - -
28/05:30am - - - - - SSW 15 19 8 10 - - -
28/05:00am - - - - - SSW 19 22 10 12 - - -
28/04:30am - - - - - SSW 20 26 11 14 - - -
28/04:00am - - - - - SSW 22 26 12 14 - - -
28/03:30am - - - - - SSW 24 30 13 16 - - -
28/03:00am - - - - - S 26 32 14 17 - - -
28/02:30am - - - - - S 20 24 11 13 - - -
28/02:00am - - - - - S 20 26 11 14 - - -
28/01:30am - - - - - S 26 33 14 18 - - -
28/01:00am - - - - - S 26 32 14 17 - - -
28/12:30am - - - - - S 30 39 16 21 - - -
28/12:00am - - - - - S 30 35 16 19 - - -
 
Date/Time
EST
Temp
°C
App
Temp
°C
Dew
Point
°C
Rel
Hum
%
Delta-T
°C
Wind Press
QNH
hPa
Press
MSL
hPa
Rain since
9am
mm
Dir  Spd
km/h
Gust
km/h
Spd
kts
Gust
kts
27/11:30pm - - - - - S 33 41 18 22 - - -
27/11:00pm - - - - - S 30 35 16 19 - - -
27/10:30pm - - - - - S 24 30 13 16 - - -
27/10:00pm - - - - - S 24 30 13 16 - - -
27/09:30pm - - - - - S 26 32 14 17 - - -
27/09:00pm - - - - - S 22 28 12 15 - - -
27/08:30pm - - - - - SSE 19 24 10 13 - - -
27/08:00pm - - - - - SSE 28 35 15 19 - - -
27/07:30pm - - - - - SE 28 33 15 18 - - -
27/07:04pm - - - - - SSE 30 48 16 26 - - -
27/07:02pm - - - - - SSE 28 48 15 26 - - -
27/07:00pm - - - - - SSE 28 32 15 17 - - -
27/06:30pm - - - - - SSE 32 39 17 21 - - -
27/06:00pm - - - - - SSE 30 33 16 18 - - -
27/05:30pm - - - - - SSE 32 37 17 20 - - -
27/05:00pm - - - - - SSE 28 32 15 17 - - -
27/04:30pm - - - - - SSE 30 37 16 20 - - -
27/04:00pm - - - - - SSE 33 39 18 21 - - -
27/03:30pm - - - - - SSE 33 41 18 22 - - -
27/03:00pm - - - - - SSE 33 41 18 22 - - -
27/02:30pm - - - - - SSE 30 35 16 19 - - -
27/02:00pm - - - - - SSE 35 41 19 22 - - -
27/01:30pm - - - - - SSE 35 43 19 23 - - -
27/01:00pm - - - - - SSE 28 32 15 17 - - -
27/12:30pm - - - - - SSE 26 30 14 16 - - -
27/12:00pm - - - - - SE 24 30 13 16 - - -
27/11:30am - - - - - SSE 24 32 13 17 - - -
27/11:00am - - - - - SSE 26 32 14 17 - - -
27/10:30am - - - - - S 28 32 15 17 - - -
27/10:00am - - - - - S 26 32 14 17 - - -
27/09:30am - - - - - SSE 24 30 13 16 - - -
27/09:00am - - - - - SSE 24 32 13 17 - - -
27/08:30am - - - - - SSE 26 30 14 16 - - -
27/08:00am - - - - - SSE 28 35 15 19 - - -
27/07:30am - - - - - SSE 26 32 14 17 - - -
27/07:00am - - - - - SSE 24 30 13 16 - - -
27/06:30am - - - - - SE 28 32 15 17 - - -
27/06:00am - - - - - SE 28 35 15 19 - - -
27/05:30am - - - - - SSE 28 33 15 18 - - -
27/05:00am - - - - - S 24 30 13 16 - - -
27/04:30am - - - - - SSE 26 33 14 18 - - -
27/04:00am - - - - - S 33 41 18 22 - - -
27/03:30am - - - - - S 24 33 13 18 - - -
27/03:00am - - - - - S 22 28 12 15 - - -
27/02:30am - - - - - S 24 30 13 16 - - -
27/02:00am - - - - - S 22 28 12 15 - - -
27/01:30am - - - - - S 20 26 11 14 - - -
27/01:00am - - - - - S 22 28 12 15 - - -
27/12:30am - - - - - S 24 28 13 15 - - -
27/12:00am - - - - - S 30 35 16 19 - - -
 
Date/Time
EST
Temp
°C
App
Temp
°C
Dew
Point
°C
Rel
Hum
%
Delta-T
°C
Wind Press
QNH
hPa
Press
MSL
hPa
Rain since
9am
mm
Dir  Spd
km/h
Gust
km/h
Spd
kts
Gust
kts
26/11:30pm - - - - - S 30 37 16 20 - - -
26/11:00pm - - - - - SSE 28 37 15 20 - - -
26/10:30pm - - - - - SSE 30 37 16 20 - - -
26/10:00pm - - - - - SSE 35 43 19 23 - - -
26/09:30pm - - - - - S 28 33 15 18 - - -
26/09:00pm - - - - - S 37 44 20 24 - - -
26/08:30pm - - - - - SSE 30 35 16 19 - - -
26/08:00pm - - - - - SSE 30 39 16 21 - - -
26/07:30pm - - - - - SE 32 41 17 22 - - -
26/07:00pm - - - - - SSE 32 41 17 22 - - -
26/06:30pm - - - - - SSE 33 41 18 22 - - -
26/06:00pm - - - - - SSE 35 44 19 24 - - -
26/05:30pm - - - - - SSE 41 50 22 27 - - -
26/05:00pm - - - - - SSE 41 48 22 26 - - -
26/04:30pm - - - - - SSE 41 50 22 27 - - -
26/04:00pm - - - - - SSE 43 50 23 27 - - -
26/03:30pm - - - - - SE 43 50 23 27 - - -
26/03:00pm - - - - - SE 37 43 20 23 - - -
26/02:30pm - - - - - SE 35 41 19 22 - - -
26/02:00pm - - - - - SE 37 43 20 23 - - -
26/01:30pm - - - - - SE 37 43 20 23 - - -
26/01:00pm - - - - - SE 35 41 19 22 - - -
26/12:30pm - - - - - SE 33 39 18 21 - - -
26/12:00pm - - - - - SE 33 39 18 21 - - -
26/11:30am - - - - - SE 33 41 18 22 - - -
26/11:00am - - - - - SSE 32 39 17 21 - - -
26/10:30am - - - - - SSE 30 39 16 21 - - -
26/10:00am - - - - - SSE 33 43 18 23 - - -
26/09:30am - - - - - SSE 30 35 16 19 - - -
26/09:00am - - - - - SSE 20 32 11 17 - - -
26/08:30am - - - - - SSE 19 24 10 13 - - -
26/08:00am - - - - - SSE 24 28 13 15 - - -
26/07:30am - - - - - S 20 26 11 14 - - -
26/07:00am - - - - - SSW 19 24 10 13 - - -
26/06:30am - - - - - S 20 28 11 15 - - -
26/06:00am - - - - - SSW 20 24 11 13 - - -
26/05:30am - - - - - SSW 19 22 10 12 - - -
26/05:00am - - - - - S 19 24 10 13 - - -
26/04:30am - - - - - S 22 26 12 14 - - -
26/04:00am - - - - - S 24 30 13 16 - - -
26/03:30am - - - - - S 22 28 12 15 - - -
26/03:00am - - - - - S 22 26 12 14 - - -
26/02:30am - - - - - S 20 24 11 13 - - -
26/02:00am - - - - - S 20 26 11 14 - - -
26/01:30am - - - - - S 22 28 12 15 - - -
26/01:00am - - - - - S 22 26 12 14 - - -

Latest Capital City Observations: Canberra | Sydney | Melbourne | Brisbane | Adelaide | Perth | Hobart | Darwin

Other Formats:

Comma delimited format used in spreadsheet applications
http://www.bom.gov.au/fwo/IDQ60901/IDQ60901.94591.axf

JavaScript Object Notation format (JSON) in row-major order
http://www.bom.gov.au/fwo/IDQ60901/IDQ60901.94591.json